createdAt,value
2023-04-13T00:00:57.697Z,6.70
2023-04-13T00:05:56.267Z,6.70
2023-04-13T00:08:24.796Z,6.60
2023-04-13T00:10:54.433Z,6.60
2023-04-13T00:13:24.898Z,6.60
2023-04-13T00:15:57.089Z,6.60
2023-04-13T00:18:25.609Z,6.40
2023-04-13T00:23:23.007Z,6.70
2023-04-13T00:25:51.448Z,6.70
2023-04-13T00:30:50.398Z,6.80
2023-04-13T00:33:20.477Z,6.70
2023-04-13T00:35:48.880Z,7.90
2023-04-13T00:38:18.159Z,6.70
2023-04-13T00:40:47.008Z,6.70
2023-04-13T00:43:15.376Z,6.50
2023-04-13T00:45:45.429Z,6.60
2023-04-13T00:48:14.658Z,6.70
2023-04-13T00:50:45.293Z,6.70
2023-04-13T00:53:14.158Z,6.60
2023-04-13T00:58:13.597Z,6.60
2023-04-13T01:00:43.596Z,6.50
2023-04-13T01:03:13.422Z,6.50
2023-04-13T01:08:31.089Z,6.60
2023-04-13T01:11:07.135Z,6.70
2023-04-13T01:16:19.727Z,6.60
2023-04-13T01:18:54.216Z,6.60
2023-04-13T01:21:29.343Z,6.60
2023-04-13T01:24:17.096Z,6.70
2023-04-13T01:27:08.036Z,7.40
2023-04-13T01:29:40.256Z,6.90
2023-04-13T01:32:11.280Z,6.90
2023-04-13T01:37:11.064Z,6.90
2023-04-13T01:39:40.185Z,6.80
2023-04-13T01:42:26.547Z,6.70
2023-04-13T01:44:56.687Z,6.70
2023-04-13T01:47:26.657Z,6.70
2023-04-13T01:50:13.384Z,6.60
2023-04-13T01:53:08.343Z,6.50
2023-04-13T01:55:43.158Z,6.40
2023-04-13T01:58:15.460Z,6.30
2023-04-13T02:00:50.232Z,6.40
2023-04-13T02:03:18.954Z,6.30
2023-04-13T02:05:48.465Z,6.30
2023-04-13T02:10:49.001Z,6.20
2023-04-13T02:13:17.333Z,6.20
2023-04-13T02:15:46.056Z,6.20
2023-04-13T02:18:15.772Z,6.20
2023-04-13T02:20:44.122Z,6.30
2023-04-13T02:23:15.072Z,6.30
2023-04-13T02:25:48.039Z,6.30
2023-04-13T02:28:18.011Z,6.30
2023-04-13T02:30:48.110Z,6.20
2023-04-13T02:33:19.201Z,6.20
2023-04-13T02:35:48.982Z,6.30
2023-04-13T02:38:20.427Z,6.30
2023-04-13T02:40:56.583Z,6.30
2023-04-13T02:45:55.772Z,6.30
2023-04-13T02:48:28.303Z,6.30
2023-04-13T02:50:58.056Z,6.40
2023-04-13T02:53:31.881Z,6.80
2023-04-13T02:56:06.439Z,6.30
2023-04-13T02:58:35.304Z,6.30
2023-04-13T03:01:08.815Z,6.30
2023-04-13T03:03:38.843Z,6.20
2023-04-13T03:06:08.442Z,5.20
2023-04-13T03:08:46.428Z,6.20
2023-04-13T03:11:26.208Z,6.20
2023-04-13T03:14:07.430Z,6.20
2023-04-13T03:16:36.986Z,6.20
2023-04-13T03:19:07.215Z,6.20
2023-04-13T03:21:37.476Z,6.10
2023-04-13T03:24:14.026Z,6.20
2023-04-13T03:26:42.637Z,6.10
2023-04-13T03:29:15.930Z,6.00
2023-04-13T03:31:46.766Z,6.00
2023-04-13T03:34:16.673Z,6.60
2023-04-13T03:39:20.067Z,6.00
2023-04-13T03:41:48.506Z,6.10
2023-04-13T03:44:18.205Z,6.00
2023-04-13T03:46:46.575Z,6.00
2023-04-13T03:49:26.509Z,5.90
2023-04-13T03:51:54.871Z,5.80
2023-04-13T03:54:23.335Z,5.80
2023-04-13T03:59:23.970Z,5.80
2023-04-13T04:01:52.517Z,5.80
2023-04-13T04:06:53.666Z,5.70
2023-04-13T04:09:22.471Z,5.70
2023-04-13T04:11:51.177Z,5.70
2023-04-13T04:14:26.875Z,5.60
2023-04-13T04:19:42.180Z,5.60
2023-04-13T04:22:14.061Z,5.60
2023-04-13T04:24:44.402Z,5.60
2023-04-13T04:27:14.494Z,5.70
2023-04-13T04:29:49.790Z,5.80
2023-04-13T04:32:33.883Z,5.80
2023-04-13T04:37:39.493Z,5.80
2023-04-13T04:40:14.148Z,5.90
2023-04-13T04:42:43.357Z,5.70
2023-04-13T04:45:43.740Z,5.90
2023-04-13T04:48:14.921Z,5.90
2023-04-13T04:50:46.899Z,5.80
2023-04-13T04:53:19.170Z,5.90
2023-04-13T04:55:47.829Z,5.90
2023-04-13T04:58:28.065Z,5.90
2023-04-13T05:00:58.119Z,5.90
2023-04-13T05:03:26.788Z,5.90
2023-04-13T05:06:07.104Z,5.80
2023-04-13T05:08:37.313Z,5.80
2023-04-13T05:11:08.402Z,5.80
2023-04-13T05:13:37.662Z,5.90
2023-04-13T05:16:19.796Z,5.80
2023-04-13T05:18:49.800Z,5.70
2023-04-13T05:21:41.282Z,5.80
2023-04-13T05:24:11.615Z,5.70
2023-04-13T05:26:43.036Z,5.80
2023-04-13T05:29:13.435Z,5.80
2023-04-13T05:31:45.388Z,5.70
2023-04-13T05:34:13.803Z,5.90
2023-04-13T05:36:50.335Z,6.00
2023-04-13T05:39:20.486Z,6.10
2023-04-13T05:41:49.827Z,6.10
2023-04-13T05:44:20.060Z,6.20
2023-04-13T05:46:51.566Z,6.20
2023-04-13T05:49:20.086Z,6.30
2023-04-13T05:51:49.749Z,6.30
2023-04-13T05:54:20.582Z,6.30
2023-04-13T05:56:51.279Z,6.40
2023-04-13T05:59:19.629Z,6.40
2023-04-13T06:04:20.929Z,6.40
2023-04-13T06:06:51.411Z,6.40
2023-04-13T06:09:21.073Z,6.50
2023-04-13T06:11:50.034Z,6.50
2023-04-13T06:14:20.813Z,6.60
2023-04-13T06:16:49.175Z,6.60
2023-04-13T06:19:17.696Z,6.70
2023-04-13T06:24:15.920Z,6.80
2023-04-13T06:26:45.939Z,6.90
2023-04-13T06:29:14.344Z,7.00
2023-04-13T06:31:49.495Z,7.10
2023-04-13T06:34:20.274Z,7.10
2023-04-13T06:36:49.066Z,7.10
2023-04-13T06:39:19.695Z,7.20
2023-04-13T06:41:58.822Z,7.10
2023-04-13T06:44:46.084Z,7.20
2023-04-13T06:47:16.116Z,7.20
2023-04-13T06:49:46.669Z,7.30
2023-04-13T06:57:26.377Z,7.40
2023-04-13T06:59:55.646Z,7.40
2023-04-13T07:02:24.318Z,7.40
2023-04-13T07:04:53.491Z,7.40
2023-04-13T07:09:54.088Z,7.50
2023-04-13T07:12:22.499Z,7.50
2023-04-13T07:14:53.339Z,8.00
2023-04-13T07:17:24.588Z,7.50
2023-04-13T07:19:53.096Z,8.50
2023-04-13T07:22:21.790Z,7.70
2023-04-13T07:24:52.499Z,7.70
2023-04-13T07:27:22.223Z,7.80
2023-04-13T07:29:54.212Z,8.00
2023-04-13T07:35:01.928Z,8.50
2023-04-13T07:37:32.946Z,8.60
2023-04-13T07:40:01.598Z,8.80
2023-04-13T07:42:33.743Z,8.90
2023-04-13T07:45:03.729Z,8.80
2023-04-13T07:50:09.518Z,7.90
2023-04-13T07:52:39.223Z,9.30
2023-04-13T07:55:09.401Z,9.40
2023-04-13T08:00:18.418Z,9.50
2023-04-13T08:02:49.621Z,9.70
2023-04-13T08:05:24.475Z,9.90
2023-04-13T08:07:53.284Z,10.00
2023-04-13T08:10:21.741Z,9.90
2023-04-13T08:12:50.456Z,10.10
2023-04-13T08:15:24.248Z,10.10
2023-04-13T08:17:54.225Z,9.90
2023-04-13T08:20:24.227Z,9.80
2023-04-13T08:22:54.703Z,9.60
2023-04-13T08:25:23.254Z,9.50
2023-04-13T08:27:51.691Z,9.60
2023-04-13T08:30:22.676Z,9.80
2023-04-13T08:35:29.088Z,10.10
2023-04-13T08:40:39.186Z,10.30
2023-04-13T08:43:11.462Z,10.50
2023-04-13T08:45:43.585Z,10.70
2023-04-13T08:48:14.482Z,10.80
2023-04-13T08:50:45.197Z,11.10
2023-04-13T08:53:19.383Z,11.40
2023-04-13T08:55:51.798Z,11.60
2023-04-13T08:58:24.567Z,11.80
2023-04-13T09:00:55.040Z,11.80
2023-04-13T09:03:27.542Z,11.40
2023-04-13T09:06:02.854Z,10.80
2023-04-13T09:08:36.009Z,10.80
2023-04-13T09:11:07.579Z,10.70
2023-04-13T09:13:36.132Z,10.70
2023-04-13T09:16:07.626Z,10.70
2023-04-13T09:18:52.752Z,10.80
2023-04-13T09:21:22.001Z,10.90
2023-04-13T09:23:59.862Z,11.10
2023-04-13T09:26:28.604Z,11.20
2023-04-13T09:28:58.609Z,10.50
2023-04-13T09:31:28.639Z,11.30
2023-04-13T09:33:57.418Z,11.40
2023-04-13T09:36:29.488Z,11.30
2023-04-13T09:38:58.749Z,11.00
2023-04-13T09:41:32.885Z,11.00
2023-04-13T09:44:02.764Z,10.70
2023-04-13T09:46:32.952Z,10.60
2023-04-13T09:49:04.034Z,10.50
2023-04-13T09:51:40.106Z,10.30
2023-04-13T09:54:09.057Z,10.30
2023-04-13T09:56:48.375Z,10.40
2023-04-13T09:59:19.828Z,11.00
2023-04-13T10:01:49.969Z,10.40
2023-04-13T10:04:18.796Z,10.40
2023-04-13T10:06:48.294Z,10.60
2023-04-13T10:09:17.383Z,10.70
2023-04-13T10:11:50.314Z,10.30
2023-04-13T10:14:26.726Z,10.80
2023-04-13T10:17:40.910Z,11.00
2023-04-13T10:20:13.694Z,11.40
2023-04-13T10:22:47.471Z,11.80
2023-04-13T10:25:31.457Z,11.60
2023-04-13T10:28:02.066Z,12.10
2023-04-13T10:30:30.970Z,11.40
2023-04-13T10:33:11.473Z,11.60
2023-04-13T10:35:43.292Z,11.70
2023-04-13T10:38:12.150Z,11.90
2023-04-13T10:40:45.620Z,12.10
2023-04-13T10:43:14.112Z,12.50
2023-04-13T10:45:42.512Z,12.50
2023-04-13T10:48:22.269Z,13.50
2023-04-13T10:50:59.938Z,12.00
2023-04-13T10:53:30.584Z,11.40
2023-04-13T10:55:59.517Z,11.20
2023-04-13T10:58:32.511Z,10.90
2023-04-13T11:01:03.316Z,11.00
2023-04-13T11:03:33.790Z,11.10
2023-04-13T11:06:02.580Z,11.30
2023-04-13T11:08:32.663Z,11.30
2023-04-13T11:11:01.490Z,11.30
2023-04-13T11:13:30.310Z,11.10
2023-04-13T11:16:08.802Z,10.90
2023-04-13T11:18:38.804Z,10.70
2023-04-13T11:21:15.084Z,10.50
2023-04-13T11:23:44.183Z,10.40
2023-04-13T11:26:14.726Z,10.50
2023-04-13T11:28:46.266Z,10.50
2023-04-13T11:31:15.068Z,10.50
2023-04-13T11:33:50.035Z,10.70
2023-04-13T11:36:20.433Z,10.60
2023-04-13T11:38:49.706Z,10.70
2023-04-13T11:41:18.182Z,10.80
2023-04-13T11:43:48.733Z,10.70
2023-04-13T11:46:25.389Z,10.70
2023-04-13T11:48:56.333Z,10.60
2023-04-13T11:51:26.804Z,10.50
2023-04-13T11:53:55.633Z,10.30
2023-04-13T11:56:25.891Z,10.20
2023-04-13T11:58:54.888Z,10.10
2023-04-13T12:01:28.372Z,10.00
2023-04-13T12:06:45.857Z,10.00
2023-04-13T12:09:17.770Z,10.00
2023-04-13T12:19:51.802Z,10.90
2023-04-13T12:22:20.939Z,11.00
2023-04-13T12:24:51.089Z,11.10
2023-04-13T12:27:19.896Z,11.10
2023-04-13T12:29:48.974Z,11.00
2023-04-13T12:34:49.332Z,10.90
2023-04-13T12:37:17.596Z,10.80
2023-04-13T12:39:46.689Z,10.80
2023-04-13T12:42:15.088Z,10.70
2023-04-13T12:44:43.353Z,10.80
2023-04-13T12:47:11.995Z,10.80
2023-04-13T12:49:40.329Z,10.70
2023-04-13T12:52:10.086Z,10.70
2023-04-13T12:54:38.328Z,10.70
2023-04-13T12:57:07.757Z,10.70
2023-04-13T12:59:36.089Z,10.60
2023-04-13T13:04:33.808Z,10.50
2023-04-13T13:07:02.174Z,10.60
2023-04-13T13:09:32.322Z,10.60
2023-04-13T13:12:02.649Z,10.50
2023-04-13T13:14:32.473Z,10.60
2023-04-13T13:17:01.000Z,10.50
2023-04-13T13:19:29.305Z,10.40
2023-04-13T13:21:57.896Z,10.50
2023-04-13T13:24:26.220Z,10.50
2023-04-13T13:29:31.000Z,10.40
2023-04-13T13:31:59.267Z,10.40
2023-04-13T13:34:27.748Z,10.40
2023-04-13T13:36:56.950Z,10.30
2023-04-13T13:39:25.935Z,10.40
2023-04-13T13:41:55.575Z,10.40
2023-04-13T13:44:23.983Z,10.40
2023-04-13T13:46:52.607Z,10.40
2023-04-13T13:52:08.985Z,10.50
2023-04-13T13:54:45.714Z,10.20
2023-04-13T13:57:15.549Z,10.30
2023-04-13T13:59:44.249Z,10.30
2023-04-13T14:04:41.443Z,10.30
2023-04-13T14:07:09.822Z,10.20
2023-04-13T14:12:07.742Z,10.30
2023-04-13T14:14:37.481Z,10.40
2023-04-13T14:17:05.880Z,10.40
2023-04-13T14:22:02.995Z,10.40
2023-04-13T14:24:31.372Z,10.90
2023-04-13T14:26:59.714Z,10.30
2023-04-13T14:29:28.064Z,10.30
2023-04-13T14:31:58.215Z,10.30
2023-04-13T14:34:26.739Z,10.40
2023-04-13T14:36:55.650Z,10.00
2023-04-13T14:39:26.002Z,10.40
2023-04-13T14:41:56.397Z,10.30
2023-04-13T14:44:25.472Z,10.30
2023-04-13T14:46:53.839Z,10.20
2023-04-13T14:49:23.580Z,10.20
2023-04-13T14:54:21.123Z,10.10
2023-04-13T14:56:49.740Z,10.00
2023-04-13T14:59:18.680Z,10.00
2023-04-13T15:01:47.686Z,10.00
2023-04-13T15:04:17.153Z,10.00
2023-04-13T15:06:47.683Z,10.00
2023-04-13T15:11:45.608Z,10.00
2023-04-13T15:14:13.938Z,10.00
2023-04-13T15:19:11.086Z,9.90
2023-04-13T15:21:39.439Z,9.90
2023-04-13T15:24:10.498Z,9.90
2023-04-13T15:26:41.044Z,9.70
2023-04-13T15:29:10.740Z,9.70
2023-04-13T15:34:08.961Z,9.70
2023-04-13T15:36:37.285Z,9.70
2023-04-13T15:39:06.272Z,9.80
2023-04-13T15:41:36.062Z,9.80
2023-04-13T15:46:34.205Z,9.70
2023-04-13T15:49:02.925Z,9.80
2023-04-13T15:51:31.993Z,9.70
2023-04-13T15:54:00.328Z,9.80
2023-04-13T15:56:29.873Z,9.80
2023-04-13T15:58:59.791Z,9.90
2023-04-13T16:01:28.558Z,9.90
2023-04-13T16:06:26.357Z,9.90
2023-04-13T16:08:56.966Z,9.90
2023-04-13T16:11:28.873Z,9.80
2023-04-13T16:14:07.133Z,9.80
2023-04-13T16:16:44.350Z,9.80
2023-04-13T16:19:13.196Z,9.80
2023-04-13T16:21:43.502Z,9.70
2023-04-13T16:24:12.236Z,9.60
2023-04-13T16:26:40.906Z,9.60
2023-04-13T16:29:10.596Z,9.90
2023-04-13T16:31:39.001Z,9.60
2023-04-13T16:34:24.482Z,9.50
2023-04-13T16:36:54.319Z,9.50
2023-04-13T16:39:22.827Z,9.50
2023-04-13T16:41:51.158Z,9.40
2023-04-13T16:44:20.944Z,9.50
2023-04-13T16:46:49.679Z,9.50
2023-04-13T16:51:48.421Z,9.60
2023-04-13T16:54:18.128Z,9.40
2023-04-13T16:56:46.686Z,9.40
2023-04-13T16:59:15.046Z,9.30
2023-04-13T17:01:44.742Z,9.20
2023-04-13T17:04:13.751Z,9.20
2023-04-13T17:06:42.253Z,9.10
2023-04-13T17:09:11.182Z,9.00
2023-04-13T17:11:39.500Z,8.90
2023-04-13T17:14:09.109Z,8.90
2023-04-13T17:16:37.617Z,8.90
2023-04-13T17:19:08.329Z,8.70
2023-04-13T17:21:36.838Z,8.70
2023-04-13T17:24:06.187Z,8.70
2023-04-13T17:26:34.459Z,8.60
2023-04-13T17:29:02.791Z,9.20
2023-04-13T17:31:31.347Z,8.60
2023-04-13T17:33:59.633Z,8.50
2023-04-13T17:36:29.469Z,8.50
2023-04-13T17:41:27.249Z,8.30
2023-04-13T17:43:55.793Z,8.30
2023-04-13T17:48:53.094Z,8.10
2023-04-13T17:53:51.763Z,8.00
2023-04-13T17:56:20.979Z,7.90
2023-04-13T17:58:49.535Z,7.80
2023-04-13T18:03:47.126Z,7.80
2023-04-13T18:08:44.985Z,7.70
2023-04-13T18:11:14.735Z,7.60
2023-04-13T18:13:43.010Z,7.60
2023-04-13T18:16:14.123Z,7.50
2023-04-13T18:18:42.758Z,7.50
2023-04-13T18:21:11.050Z,7.50
2023-04-13T18:23:39.885Z,7.50
2023-04-13T18:26:08.364Z,7.40
2023-04-13T18:28:38.165Z,7.40
2023-04-13T18:31:08.197Z,7.40
2023-04-13T18:33:36.909Z,7.30
2023-04-13T18:36:05.694Z,7.90
2023-04-13T18:38:34.862Z,7.40
2023-04-13T18:41:03.678Z,7.40
2023-04-13T18:43:31.879Z,7.40
2023-04-13T18:46:02.317Z,7.30
2023-04-13T18:48:31.576Z,7.40
2023-04-13T18:51:00.521Z,7.40
2023-04-13T18:53:29.285Z,7.40
2023-04-13T18:55:59.973Z,7.20
2023-04-13T18:58:28.321Z,7.30
2023-04-13T19:00:56.981Z,7.40
2023-04-13T19:03:26.868Z,7.40
2023-04-13T19:05:55.180Z,7.40
2023-04-13T19:08:23.622Z,7.40
2023-04-13T19:10:52.613Z,7.40
2023-04-13T19:15:49.902Z,7.30
2023-04-13T19:18:18.354Z,7.30
2023-04-13T19:20:48.223Z,7.40
2023-04-13T19:23:16.604Z,7.40
2023-04-13T19:25:44.920Z,7.30
2023-04-13T19:28:14.649Z,7.30
2023-04-13T19:30:42.975Z,7.40
2023-04-13T19:33:11.749Z,7.30
2023-04-13T19:35:40.034Z,7.30
2023-04-13T19:38:10.078Z,7.40
2023-04-13T19:40:38.803Z,7.40
2023-04-13T19:45:36.350Z,7.30
2023-04-13T19:48:04.938Z,6.90
2023-04-13T19:50:33.397Z,7.30
2023-04-13T19:53:01.706Z,7.30
2023-04-13T19:55:31.854Z,7.20
2023-04-13T19:58:00.178Z,7.30
2023-04-13T20:03:03.044Z,7.30
2023-04-13T20:05:31.677Z,7.30
2023-04-13T20:08:00.581Z,7.30
2023-04-13T20:10:31.640Z,7.30
2023-04-13T20:13:00.235Z,7.90
2023-04-13T20:15:30.978Z,7.10
2023-04-13T20:17:59.406Z,7.10
2023-04-13T20:20:29.527Z,7.00
2023-04-13T20:22:57.866Z,7.00
2023-04-13T20:25:26.851Z,7.00
2023-04-13T20:27:56.892Z,7.00
2023-04-13T20:30:25.237Z,7.00
2023-04-13T20:32:53.650Z,6.70
2023-04-13T20:35:22.934Z,6.90
2023-04-13T20:40:26.994Z,7.00
2023-04-13T20:42:59.276Z,6.80
2023-04-13T20:45:27.628Z,6.90
2023-04-13T20:47:57.353Z,8.40
2023-04-13T20:50:27.543Z,6.90
2023-04-13T20:52:56.947Z,5.90
2023-04-13T20:55:27.078Z,6.70
2023-04-13T20:57:56.886Z,6.90
2023-04-13T21:00:25.214Z,6.80
2023-04-13T21:02:54.931Z,6.90
2023-04-13T21:05:23.405Z,6.90
2023-04-13T21:07:51.964Z,6.80
2023-04-13T21:10:20.546Z,6.70
2023-04-13T21:12:48.865Z,6.80
2023-04-13T21:15:18.923Z,6.80
2023-04-13T21:17:48.916Z,6.80
2023-04-13T21:20:17.523Z,6.80
2023-04-13T21:22:46.107Z,6.80
2023-04-13T21:25:14.443Z,6.70
2023-04-13T21:27:43.178Z,6.70
2023-04-13T21:30:12.424Z,6.60
2023-04-13T21:32:42.363Z,7.60
2023-04-13T21:35:12.127Z,6.50
2023-04-13T21:37:40.387Z,6.50
2023-04-13T21:40:09.650Z,8.40
2023-04-13T21:42:38.197Z,6.40
2023-04-13T21:45:08.510Z,6.30
2023-04-13T21:50:08.985Z,6.30
2023-04-13T21:52:37.301Z,6.20
2023-04-13T21:55:06.654Z,6.20
2023-04-13T21:57:34.968Z,6.20
2023-04-13T22:00:06.189Z,6.20
2023-04-13T22:02:42.259Z,6.20
2023-04-13T22:05:13.055Z,6.10
2023-04-13T22:07:43.528Z,6.10
2023-04-13T22:10:12.709Z,6.10
2023-04-13T22:12:41.214Z,6.00
2023-04-13T22:15:10.581Z,6.10
2023-04-13T22:17:38.920Z,6.10
2023-04-13T22:20:09.233Z,6.10
2023-04-13T22:22:38.837Z,6.00
2023-04-13T22:25:07.745Z,6.10
2023-04-13T22:27:37.691Z,6.10
2023-04-13T22:30:07.906Z,6.20
2023-04-13T22:32:36.305Z,6.80
2023-04-13T22:35:05.030Z,6.30
2023-04-13T22:37:35.479Z,6.30
2023-04-13T22:40:06.127Z,6.20
2023-04-13T22:42:34.434Z,6.20
2023-04-13T22:45:02.721Z,8.80
2023-04-13T22:47:32.173Z,6.40
2023-04-13T22:52:29.517Z,7.00
2023-04-13T22:54:58.122Z,6.20
2023-04-13T22:57:28.452Z,6.20
2023-04-13T23:02:25.664Z,6.20
2023-04-13T23:04:54.395Z,6.20
2023-04-13T23:07:22.869Z,6.20
2023-04-13T23:09:53.179Z,6.10
2023-04-13T23:12:21.841Z,6.00
2023-04-13T23:14:53.222Z,6.00
2023-04-13T23:17:21.526Z,5.80
2023-04-13T23:19:49.776Z,6.10
2023-04-13T23:22:18.691Z,6.10
2023-04-13T23:24:47.572Z,6.10
2023-04-13T23:27:15.937Z,6.00
2023-04-13T23:29:45.668Z,6.10
2023-04-13T23:32:15.642Z,6.10
2023-04-13T23:34:43.973Z,6.10
2023-04-13T23:37:12.606Z,6.10
2023-04-13T23:42:09.793Z,6.10
2023-04-13T23:47:07.252Z,6.00
2023-04-13T23:49:37.596Z,5.90
2023-04-13T23:52:07.586Z,5.90
2023-04-13T23:57:05.167Z,5.80
2023-04-13T23:59:33.464Z,5.70
